WetterOnline ( http://www.wetteronline.ch )

Wetter aktuell Groningen

Aktuelles Wetter: Groningen-Eelde (4m)

6-stündlich | Neueste Meldungen
Ortszeit Temperatur Wetter
So, 24.03. 13:00 10.1° C leicht bewölkt
So, 24.03. 7:00 2.4° C bedeckt
So, 24.03. 1:00 3.3° C wolkig
Sa, 23.03. 19:00 6.1° C bedeckt
Sa, 23.03. 13:00 9.2° C bedeckt
Sa, 23.03. 7:00 6.8° C bedeckt
Sa, 23.03. 1:00 5.9° C bedeckt
Fr, 22.03. 19:00 12.5° C wolkenlos
Ortszeit Temperatur Wetter
So, 24.03. 15:25 10° C -
So, 24.03. 15:00 9.2° C fast wolkenlos
So, 24.03. 14:55 9° C leicht bewölkt
So, 24.03. 14:25 9° C bewölkt
So, 24.03. 14:00 9.0° C bewölkt
So, 24.03. 13:55 9° C bewölkt
So, 24.03. 13:25 10° C bedeckt
So, 24.03. 13:00 10.1° C leicht bewölkt
So, 24.03. 12:25 9° C -
So, 24.03. 12:00 7.9° C wolkig
Ortszeit Relative Feuchte Sichtweite
So, 24.03. 13:00 59% 21 km
So, 24.03. 7:00 98% 5.0 km
So, 24.03. 1:00 96% 10 km
Sa, 23.03. 19:00 79% 14 km
Sa, 23.03. 13:00 87% 21 km
Sa, 23.03. 7:00 97% 2.2 km
Sa, 23.03. 1:00 95% 2.2 km
Fr, 22.03. 19:00 57% 26 km
Ortszeit Relative Feuchte Sichtweite
So, 24.03. 15:25 50% >10 km
So, 24.03. 15:00 58% 26 km
So, 24.03. 14:55 57% >10 km
So, 24.03. 14:25 61% >10 km
So, 24.03. 14:00 61% 22 km
So, 24.03. 13:55 61% >10 km
So, 24.03. 13:25 57% >10 km
So, 24.03. 13:00 59% 21 km
So, 24.03. 12:25 61% >10 km
So, 24.03. 12:00 68% 19 km
Ortszeit Niederschlagsmenge Niederschlagsart
So, 24.03. 13:00 0.0 l/m2 in 6 Std. -
So, 24.03. 7:00 0.0 l/m2 in 12 Std. -
So, 24.03. 1:00 0.0 l/m2 in 6 Std. -
Sa, 23.03. 19:00 0.1 l/m2 in 12 Std. -
Sa, 23.03. 13:00 0.1 l/m2 in 6 Std. Schauer
Sa, 23.03. 7:00 0.0 l/m2 in 12 Std. -
Sa, 23.03. 1:00 0.0 l/m2 in 6 Std. -
Fr, 22.03. 19:00 0.0 l/m2 in 12 Std. -
Ortszeit Niederschlagsmenge Niederschlagsart
So, 24.03. 15:25 keine Meldung -
So, 24.03. 15:00 0.0 l/m2 in 1 Std. -
So, 24.03. 14:55 keine Meldung -
So, 24.03. 14:25 keine Meldung -
So, 24.03. 14:00 0.0 l/m2 in 1 Std. -
So, 24.03. 13:55 keine Meldung -
So, 24.03. 13:25 keine Meldung -
So, 24.03. 13:00 0.0 l/m2 in 1 Std. -
So, 24.03. 12:25 keine Meldung -
So, 24.03. 12:00 0.0 l/m2 in 1 Std. -
Ortszeit Stärke Spitze Richtung
km/h Bft. km/h Grad Sektor
So, 24.03. 13:00 14 3 25 260° W
So, 24.03. 7:00 0 0 7 - -
So, 24.03. 1:00 4 1 14 310° NW
Sa, 23.03. 19:00 11 2 32 360° N
Sa, 23.03. 13:00 18 3 25 350° N
Sa, 23.03. 7:00 11 2 14 240° SW
Sa, 23.03. 1:00 7 2 29 260° W
Fr, 22.03. 19:00 7 2 29 260° W
Ortszeit Stärke Spitze Richtung
km/h Bft. km/h Grad Sektor
So, 24.03. 15:25 15 3 - 280° W
So, 24.03. 15:00 18 3 29 270° W
So, 24.03. 14:55 19 3 - 290° W
So, 24.03. 14:25 17 3 - 300° NW
So, 24.03. 14:00 14 3 25 300° NW
So, 24.03. 13:55 13 3 - 290° W
So, 24.03. 13:25 15 3 - 290° W
So, 24.03. 13:00 14 3 25 260° W
So, 24.03. 12:25 9 2 - 280° W
So, 24.03. 12:00 14 3 25 290° W
Ortszeit Untergrenze Bedeckung Gattung
total tief tief mittel hoch
So, 24.03. 13:00 900 m 4/8 4/8 - - -
So, 24.03. 7:00 - 8/8 8/8 - - -
So, 24.03. 1:00 630 m 8/8 2/8 - - -
Sa, 23.03. 19:00 3900 m 8/8 8/8 - - -
Sa, 23.03. 13:00 330 m 8/8 8/8 - - -
Sa, 23.03. 7:00 1050 m 8/8 8/8 - - -
Sa, 23.03. 1:00 - 8/8 8/8 - - -
Fr, 22.03. 19:00 - 0/8 0/8 - - -
Ortszeit Bedeckungsgrad in Achtel und Wolkenuntergrenze
So, 24.03. 15:25 -
So, 24.03. 15:00 1(1170m)
So, 24.03. 14:55 1-2(1140m) 3-4(1290m)
So, 24.03. 14:25 5-7(1050m)
So, 24.03. 14:00 7(960m)
So, 24.03. 13:55 3-4(990m) 5-7(1140m)
So, 24.03. 13:25 8(930m)
So, 24.03. 13:00 4(900m)
So, 24.03. 12:25 -
So, 24.03. 12:00 3(780m) 4(870m) 5(990m)
Ortszeit Luftdruck NN (hPa) Tendenz (hPa in 3 Std.)
So, 24.03. 13:00 1027 - 1,3
So, 24.03. 7:00 1029 - 1,1
So, 24.03. 1:00 1032 - 0,7
Sa, 23.03. 19:00 1032 + 0,6
Sa, 23.03. 13:00 1031 + 2,0
Sa, 23.03. 7:00 1028 + 0,7
Sa, 23.03. 1:00 1027 0,0
Fr, 22.03. 19:00 1026 - 0,6
Ortszeit Luftdruck NN (hPa) Tendenz (hPa in 3 Std.)
So, 24.03. 15:25 1025 keine Meldung
So, 24.03. 15:00 1026 - 2,3
So, 24.03. 14:55 1026 keine Meldung
So, 24.03. 14:25 1026 keine Meldung
So, 24.03. 14:00 1027 - 2,1
So, 24.03. 13:55 1026 keine Meldung
So, 24.03. 13:25 1027 keine Meldung
So, 24.03. 13:00 1027 - 1,3
So, 24.03. 12:25 1027 keine Meldung
So, 24.03. 12:00 1028 - 1,0
Ortszeit Schneehöhe (cm)
So, 24.03. 13:00 -
So, 24.03. 7:00 -
So, 24.03. 1:00 -
Sa, 23.03. 19:00 -
Sa, 23.03. 13:00 -
Sa, 23.03. 7:00 -
Sa, 23.03. 1:00 -
Fr, 22.03. 19:00 -
Ortszeit Schneehöhe (cm)
So, 24.03. 15:25 -
So, 24.03. 15:00 -
So, 24.03. 14:55 -
So, 24.03. 14:25 -
So, 24.03. 14:00 -
So, 24.03. 13:55 -
So, 24.03. 13:25 -
So, 24.03. 13:00 -
So, 24.03. 12:25 -
So, 24.03. 12:00 -
Link zu dieser Seite / Seite empfehlen

Das Wetter in ...